Time;durP1;ratioP1;P1;durP2;ratioP2;P2;SDS_P1;SDS_P2;PMS_P1;PMS_P2;Temp;Humidity;BMP_temperature;BMP_pressure;BME280_temperature;BME280_humidity;BME280_pressure;Samples;Min_cycle;Max_cycle;Signal;HPM_P1;HPM_P2
2023/08/28 00:09:22;;;;;;;0.50;0.10;;;;;;;;;;20998002;28;20051;-60
2023/08/28 00:19:23;;;;;;;1.73;0.22;;;;;;;;;;20997630;28;20055;-60
2023/08/28 00:29:24;;;;;;;2.55;0.40;;;;;;;;;;20996086;28;20076;-60
2023/08/28 00:39:25;;;;;;;0.68;0.20;;;;;;;;;;20996867;28;20575;-62
2023/08/28 00:49:27;;;;;;;0.85;0.20;;;;;;;;;;20996200;28;20055;-60
2023/08/28 00:59:28;;;;;;;0.20;0.10;;;;;;;;;;21012817;28;20044;-61
2023/08/28 01:09:33;;;;;;;1.15;0.20;;;;;;;;;;21011682;28;20049;-61
2023/08/28 01:19:39;;;;;;;0.95;0.22;;;;;;;;;;21011239;28;20486;-59
2023/08/28 01:29:40;;;;;;;1.85;0.40;;;;;;;;;;21010583;28;20465;-60
2023/08/28 01:39:44;;;;;;;0.70;0.30;;;;;;;;;;21010171;28;20075;-60
2023/08/28 01:49:45;;;;;;;1.45;0.22;;;;;;;;;;21009062;28;20064;-60
2023/08/28 01:59:46;;;;;;;0.50;0.30;;;;;;;;;;21008275;28;20052;-59
2023/08/28 02:09:47;;;;;;;1.38;0.20;;;;;;;;;;21007470;28;20050;-60
2023/08/28 02:19:49;;;;;;;1.02;0.30;;;;;;;;;;21006851;28;20048;-61
2023/08/28 02:29:50;;;;;;;1.40;0.30;;;;;;;;;;21006177;28;20048;-60
2023/08/28 02:39:51;;;;;;;1.25;0.20;;;;;;;;;;21005207;28;20075;-61
2023/08/28 02:49:52;;;;;;;1.48;0.30;;;;;;;;;;21002866;28;20092;-60
2023/08/28 02:59:53;;;;;;;1.88;0.30;;;;;;;;;;21002230;28;20083;-60
2023/08/28 03:09:54;;;;;;;1.25;0.20;;;;;;;;;;21001267;28;20072;-60
2023/08/28 03:19:56;;;;;;;0.82;0.28;;;;;;;;;;20999838;28;20128;-60
2023/08/28 03:29:57;;;;;;;0.88;0.20;;;;;;;;;;20999590;28;20105;-61
2023/08/28 03:39:58;;;;;;;2.85;0.65;;;;;;;;;;21000175;28;20040;-60
2023/08/28 03:49:59;;;;;;;0.30;0.15;;;;;;;;;;20998801;28;20052;-60
2023/08/28 04:00:00;;;;;;;1.25;0.30;;;;;;;;;;20998729;28;20055;-61
2023/08/28 04:10:01;;;;;;;1.55;0.40;;;;;;;;;;20998148;28;20127;-60
2023/08/28 04:20:10;;;;;;;0.30;0.20;;;;;;;;;;20998184;28;20037;-61
2023/08/28 04:30:11;;;;;;;3.30;0.32;;;;;;;;;;20997814;28;20052;-60
2023/08/28 04:40:12;;;;;;;1.38;0.38;;;;;;;;;;20997046;28;20044;-60
2023/08/28 04:50:13;;;;;;;2.60;0.57;;;;;;;;;;20995022;28;20127;-60
2023/08/28 05:00:15;;;;;;;1.90;0.35;;;;;;;;;;20995921;28;20079;-61
2023/08/28 05:10:16;;;;;;;2.67;0.50;;;;;;;;;;20995716;28;20098;-60
2023/08/28 05:20:17;;;;;;;1.38;0.30;;;;;;;;;;20993986;28;20048;-60
2023/08/28 05:30:18;;;;;;;2.00;0.38;;;;;;;;;;20994979;28;20044;-59
2023/08/28 05:40:20;;;;;;;3.55;0.75;;;;;;;;;;21002548;28;20098;-60
2023/08/28 05:50:21;;;;;;;1.67;0.47;;;;;;;;;;21009095;28;20060;-59
2023/08/28 06:00:22;;;;;;;0.47;0.22;;;;;;;;;;21008228;28;20041;-61
2023/08/28 06:10:23;;;;;;;1.88;0.65;;;;;;;;;;21007671;28;20051;-60
2023/08/28 06:20:26;;;;;;;1.42;0.70;;;;;;;;;;21005212;28;20056;-60
2023/08/28 06:30:27;;;;;;;4.30;1.35;;;;;;;;;;21006093;28;20047;-61
2023/08/28 06:40:28;;;;;;;4.07;1.00;;;;;;;;;;21005286;28;20040;-60
2023/08/28 06:50:29;;;;;;;7.05;0.90;;;;;;;;;;21001902;28;20067;-61
2023/08/28 07:00:30;;;;;;;2.42;0.70;;;;;;;;;;21002161;28;20043;-59
2023/08/28 07:10:32;;;;;;;1.70;0.65;;;;;;;;;;21002171;28;20097;-61
2023/08/28 07:20:34;;;;;;;2.25;0.57;;;;;;;;;;21001423;28;20047;-60
2023/08/28 07:30:36;;;;;;;4.15;0.85;;;;;;;;;;20999620;28;20051;-60
2023/08/28 07:40:37;;;;;;;1.77;0.57;;;;;;;;;;21000151;28;20060;-60
2023/08/28 07:50:39;;;;;;;2.05;0.50;;;;;;;;;;20999028;28;20080;-60
2023/08/28 08:00:42;;;;;;;3.03;0.85;;;;;;;;;;20997170;28;20162;-60
2023/08/28 08:10:43;;;;;;;2.90;0.50;;;;;;;;;;20998511;28;20508;-60
2023/08/28 08:20:44;;;;;;;2.78;0.50;;;;;;;;;;20997878;28;20059;-59
2023/08/28 08:30:45;;;;;;;2.13;0.50;;;;;;;;;;20997219;28;20048;-60
2023/08/28 08:40:50;;;;;;;1.92;0.30;;;;;;;;;;20996731;28;20037;-60
2023/08/28 08:50:54;;;;;;;3.92;0.90;;;;;;;;;;20997069;28;20060;-60
2023/08/28 09:00:55;;;;;;;1.27;0.57;;;;;;;;;;20994635;28;20037;-59
2023/08/28 09:11:00;;;;;;;3.42;0.50;;;;;;;;;;20997201;28;20048;-61
2023/08/28 09:21:11;;;;;;;2.40;0.35;;;;;;;;;;21009326;28;20052;-60
2023/08/28 09:31:12;;;;;;;3.38;0.63;;;;;;;;;;21009395;28;20095;-60
2023/08/28 09:41:13;;;;;;;2.88;0.63;;;;;;;;;;21009757;28;20127;-60
2023/08/28 09:51:14;;;;;;;6.43;0.57;;;;;;;;;;21008257;28;20056;-61
2023/08/28 10:01:16;;;;;;;3.63;0.45;;;;;;;;;;21008098;28;20420;-60
2023/08/28 10:11:17;;;;;;;3.55;0.88;;;;;;;;;;21007113;28;20045;-62
2023/08/28 10:21:19;;;;;;;1.92;0.50;;;;;;;;;;21006446;28;20044;-60
2023/08/28 10:31:20;;;;;;;3.92;0.68;;;;;;;;;;21005903;28;20055;-62
2023/08/28 10:41:22;;;;;;;3.60;0.85;;;;;;;;;;21004785;28;20528;-61
2023/08/28 10:51:29;;;;;;;1.30;0.40;;;;;;;;;;21003989;28;20048;-60
2023/08/28 11:01:47;;;;;;;3.05;0.32;;;;;;;;;;21003509;28;20478;-59
2023/08/28 11:11:48;;;;;;;0.95;0.47;;;;;;;;;;21002057;28;20410;-60
2023/08/28 11:21:49;;;;;;;3.35;1.05;;;;;;;;;;21001514;28;20048;-60
2023/08/28 11:31:51;;;;;;;2.10;0.80;;;;;;;;;;21000481;28;20052;-60
2023/08/28 11:41:52;;;;;;;2.33;0.88;;;;;;;;;;20998952;28;20052;-59
2023/08/28 11:51:53;;;;;;;1.40;0.45;;;;;;;;;;20998522;28;20132;-60
2023/08/28 12:01:54;;;;;;;1.90;0.52;;;;;;;;;;20998437;28;20067;-60
2023/08/28 12:11:56;;;;;;;1.52;0.80;;;;;;;;;;20997102;28;20083;-60
2023/08/28 12:22:05;;;;;;;1.50;0.57;;;;;;;;;;20997367;28;20435;-60
2023/08/28 12:32:08;;;;;;;2.67;0.60;;;;;;;;;;20996774;28;20454;-59
2023/08/28 12:42:09;;;;;;;1.25;0.40;;;;;;;;;;20996388;28;20047;-60
2023/08/28 12:52:11;;;;;;;0.73;0.30;;;;;;;;;;21008088;28;20532;-60
2023/08/28 13:02:12;;;;;;;2.17;0.65;;;;;;;;;;21012648;28;20490;-60
2023/08/28 13:12:13;;;;;;;2.35;0.60;;;;;;;;;;21011605;28;20078;-61
2023/08/28 13:22:14;;;;;;;1.02;0.60;;;;;;;;;;21010815;28;20076;-61
2023/08/28 13:32:15;;;;;;;1.40;0.50;;;;;;;;;;21010234;28;20040;-60
2023/08/28 13:42:16;;;;;;;1.13;0.40;;;;;;;;;;21009473;28;20535;-61
2023/08/28 13:52:18;;;;;;;1.10;0.40;;;;;;;;;;21009332;28;20494;-60
2023/08/28 14:02:19;;;;;;;0.65;0.30;;;;;;;;;;21007475;28;20044;-60
2023/08/28 14:12:23;;;;;;;4.88;2.70;;;;;;;;;;21006176;28;20048;-60
2023/08/28 14:22:24;;;;;;;2.28;0.30;;;;;;;;;;21006514;28;20044;-62
2023/08/28 14:32:26;;;;;;;1.13;0.40;;;;;;;;;;21002749;28;20482;-65
2023/08/28 14:42:27;;;;;;;1.90;0.60;;;;;;;;;;21003180;28;20467;-62
2023/08/28 14:52:28;;;;;;;2.15;0.57;;;;;;;;;;21003796;28;20048;-63
2023/08/28 15:02:29;;;;;;;1.23;0.57;;;;;;;;;;21001658;28;20046;-62
2023/08/28 15:12:30;;;;;;;1.50;0.40;;;;;;;;;;21001282;28;20455;-62
2023/08/28 15:22:31;;;;;;;1.25;0.60;;;;;;;;;;20998969;28;20048;-67
2023/08/28 15:32:32;;;;;;;0.60;0.30;;;;;;;;;;20999474;28;20135;-69
2023/08/28 15:42:33;;;;;;;0.63;0.28;;;;;;;;;;21000275;28;20386;-63
2023/08/28 15:52:35;;;;;;;2.83;0.60;;;;;;;;;;20998195;28;20094;-61
2023/08/28 16:02:36;;;;;;;0.63;0.40;;;;;;;;;;20997597;28;20121;-65
2023/08/28 16:12:37;;;;;;;1.80;0.85;;;;;;;;;;20996965;28;20090;-61
2023/08/28 16:22:39;;;;;;;45.53;37.55;;;;;;;;;;20997225;28;20066;-64
2023/08/28 16:32:40;;;;;;;3.33;1.00;;;;;;;;;;20996078;28;20048;-64
2023/08/28 16:42:41;;;;;;;1.85;0.50;;;;;;;;;;20996418;28;20202;-58
2023/08/28 16:52:43;;;;;;;2.42;0.50;;;;;;;;;;20994876;28;20080;-62
2023/08/28 17:02:44;;;;;;;2.70;0.88;;;;;;;;;;20995099;28;20489;-61
2023/08/28 17:12:45;;;;;;;1.90;0.43;;;;;;;;;;20993526;28;20051;-62
2023/08/28 17:22:46;;;;;;;1.13;0.65;;;;;;;;;;21072291;28;20323;-62
2023/08/28 17:32:48;;;;;;;2.22;0.38;;;;;;;;;;21068236;28;20032;-64
2023/08/28 17:42:49;;;;;;;2.42;0.43;;;;;;;;;;21082447;28;20040;-62
2023/08/28 17:52:51;;;;;;;1.75;0.50;;;;;;;;;;21091637;28;20085;-62
2023/08/28 18:02:52;;;;;;;1.30;0.50;;;;;;;;;;21091426;28;20051;-62
2023/08/28 18:12:54;;;;;;;1.40;0.60;;;;;;;;;;21090984;28;20439;-61
2023/08/28 18:22:55;;;;;;;1.42;0.47;;;;;;;;;;21089691;28;20551;-61
2023/08/28 18:32:56;;;;;;;1.55;0.70;;;;;;;;;;21089498;28;20142;-63
2023/08/28 18:42:57;;;;;;;2.67;0.52;;;;;;;;;;21088064;28;20535;-62
2023/08/28 18:52:58;;;;;;;2.75;0.55;;;;;;;;;;21088070;28;20519;-62
2023/08/28 19:02:59;;;;;;;3.33;0.50;;;;;;;;;;21086029;28;20097;-61
2023/08/28 19:13:00;;;;;;;10.13;5.55;;;;;;;;;;21086563;28;20461;-62
2023/08/28 19:23:01;;;;;;;10.68;4.95;;;;;;;;;;21085640;28;20044;-62
2023/08/28 19:33:03;;;;;;;7.63;3.35;;;;;;;;;;21084199;28;20425;-62
2023/08/28 19:43:04;;;;;;;18.42;9.27;;;;;;;;;;21082236;28;20048;-62
2023/08/28 19:53:06;;;;;;;18.00;9.20;;;;;;;;;;21081610;28;20048;-62
2023/08/28 20:03:08;;;;;;;6.60;2.90;;;;;;;;;;21080733;28;20044;-63
2023/08/28 20:13:09;;;;;;;8.00;3.00;;;;;;;;;;21080329;28;20044;-62
2023/08/28 20:23:10;;;;;;;6.00;1.73;;;;;;;;;;21080689;28;20473;-63
2023/08/28 20:33:12;;;;;;;5.93;2.60;;;;;;;;;;21080559;28;20044;-62
2023/08/28 20:43:13;;;;;;;9.05;1.77;;;;;;;;;;21078780;28;20036;-64
2023/08/28 20:53:14;;;;;;;4.20;1.80;;;;;;;;;;21079276;28;20052;-63
2023/08/28 21:03:15;;;;;;;1.88;1.00;;;;;;;;;;21079709;28;20051;-61
2023/08/28 21:13:16;;;;;;;8.38;3.17;;;;;;;;;;21090673;28;20088;-62
2023/08/28 21:23:17;;;;;;;8.00;3.10;;;;;;;;;;21095364;28;20044;-63
2023/08/28 21:33:18;;;;;;;2.95;1.90;;;;;;;;;;21094834;28;20115;-62
2023/08/28 21:43:20;;;;;;;3.50;1.77;;;;;;;;;;21093807;28;20048;-61
2023/08/28 21:53:21;;;;;;;6.55;3.13;;;;;;;;;;21091586;28;20059;-62
2023/08/28 22:03:22;;;;;;;5.35;1.17;;;;;;;;;;21092107;28;20508;-61
2023/08/28 22:13:23;;;;;;;3.67;1.48;;;;;;;;;;21091361;28;20408;-61
2023/08/28 22:23:25;;;;;;;2.85;1.48;;;;;;;;;;21089929;28;20063;-61
2023/08/28 22:33:26;;;;;;;3.75;1.27;;;;;;;;;;21089495;28;20044;-62
2023/08/28 22:43:27;;;;;;;1.95;0.90;;;;;;;;;;21089003;28;20125;-61
2023/08/28 22:53:28;;;;;;;2.80;1.40;;;;;;;;;;21087254;28;20060;-63
2023/08/28 23:03:29;;;;;;;2.83;1.70;;;;;;;;;;21086858;28;20071;-62
2023/08/28 23:13:30;;;;;;;4.60;2.20;;;;;;;;;;21086284;28;20055;-61
2023/08/28 23:23:31;;;;;;;32.60;22.50;;;;;;;;;;21085641;28;20050;-61
2023/08/28 23:33:33;;;;;;;6.47;4.28;;;;;;;;;;21084078;28;20058;-61
2023/08/28 23:43:34;;;;;;;3.17;1.60;;;;;;;;;;21083865;28;20423;-61
2023/08/28 23:53:36;;;;;;;2.85;1.10;;;;;;;;;;21082427;28;20106;-61
